Ree — C6QK9 — position and weather

sailwx.info

Track history (hours):
 
Tides and Currents Weather Stations Pressure Air Temp Water Temp Dewpoint Dewpoint Depression Visibility Wind Speed Wind Dir Waves Ship Positions

Ree

Last reported at 2018-Aug-05 00:49 UTC. Time now 2018-Aug-14 07:04 UTC.
Position N 43°20' E 007°20'.
Warning: this ship's position is 9 days out of date.

Length 34 m.

Type: Pleasure craft. MMSI: 308008000.

Date/timePositionNaut miles runAvg speedWind from/ knotsBaromVisibWave heightAir tempDewpointWater temp
2018-Aug-05 00:49N 43°20' E 007°20'4 7.1
2018-Aug-05 00:16N 43°22' E 007°16'4 7.0
2018-Aug-04 23:42N 43°24' E 007°11'1 7.1
2018-Aug-04 23:30N 43°25' E 007°10'4 7.3
2018-Aug-04 22:58N 43°28' E 007°06'4 6.4
2018-Aug-04 22:22N 43°31' E 007°02'0 0.2
2018-Aug-04 22:00N 43°31' E 007°02'0 0.0
2018-Aug-04 21:30N 43°31' E 007°02'0 0.0
2018-Aug-04 21:00N 43°31' E 007°02'0 0.0
2018-Aug-04 20:27N 43°31' E 007°02'0 0.0
2018-Aug-04 20:00N 43°31' E 007°02'0 0.0
2018-Aug-04 19:21N 43°31' E 007°02'0 0.0
2018-Aug-04 18:57N 43°31' E 007°02'0 0.0
2018-Aug-04 18:24N 43°31' E 007°02'0 0.0
2018-Aug-04 17:54N 43°31' E 007°02'1 2.3
2018-Aug-04 17:20N 43°30' E 007°01'2 7.0
2018-Aug-04 17:00N 43°29' E 006°59'1 0.0
2018-Aug-03 03:34N 43°28' E 006°58'0 7.2
2018-Aug-03 03:31N 43°28' E 006°59'4 1.2
2018-Aug-03 00:11N 43°31' E 007°02'0 0.1
2018-Aug-02 23:52N 43°31' E 007°02'0 0.0
2018-Aug-02 22:58N 43°31' E 007°02'0 0.0
2018-Aug-02 22:28N 43°31' E 007°02'0 0.0
2018-Aug-02 21:52N 43°31' E 007°02'0 0.0
2018-Aug-02 20:43N 43°31' E 007°02'0 0.0
2018-Aug-02 20:28N 43°31' E 007°02'0 0.0
2018-Aug-02 19:58N 43°31' E 007°02'0 0.0
2018-Aug-02 19:28N 43°31' E 007°02'0 0.0
2018-Aug-02 18:58N 43°31' E 007°02'0 0.0
2018-Aug-02 18:29N 43°31' E 007°02'0 0.0
2018-Aug-02 17:47N 43°31' E 007°02'1 2.1
2018-Aug-02 17:30N 43°31' E 007°02'1 2.2
2018-Aug-02 16:55N 43°32' E 007°01'0 0.0
2018-Aug-02 16:25N 43°32' E 007°01'0 0.0
2018-Aug-02 15:49N 43°32' E 007°01'0 0.0
2018-Aug-02 15:28N 43°32' E 007°01'3 6.0
2018-Aug-02 15:00N 43°30' E 007°02'2 3.8
2018-Aug-02 14:28N 43°32' E 007°03'  
2018-Jul-29 03:39N 43°29' E 007°06'2 6.4
2018-Jul-29 03:18N 43°27' E 007°04'2 6.4
2018-Jul-29 02:59N 43°26' E 007°02'3 6.2
2018-Jul-29 02:30N 43°23' E 006°59'245 6.4
2018-Jul-27 12:03N 41°22' E 002°12'1 6.5
2018-Jul-27 11:56N 41°22' E 002°12'  
Track history (hours):
 
Tides and Currents Weather Stations Pressure Air Temp Water Temp Dewpoint Dewpoint Depression Visibility Wind Speed Wind Dir Waves Ship Positions

Ree

Last reported at 2018-Aug-05 00:49 UTC. Time now 2018-Aug-14 07:04 UTC.
Position N 43°20' E 007°20'.
Warning: this ship's position is 9 days out of date.

Length 34 m.

Type: Pleasure craft. MMSI: 308008000.

Date/timePositionNaut miles runAvg speedWind from/ knotsBaromVisibWave heightAir tempDewpointWater temp
2018-Aug-05 00:49N 43°20' E 007°20'4 7.1
2018-Aug-05 00:16N 43°22' E 007°16'4 7.0
2018-Aug-04 23:42N 43°24' E 007°11'1 7.1
2018-Aug-04 23:30N 43°25' E 007°10'4 7.3
2018-Aug-04 22:58N 43°28' E 007°06'4 6.4
2018-Aug-04 22:22N 43°31' E 007°02'0 0.2
2018-Aug-04 22:00N 43°31' E 007°02'0 0.0
2018-Aug-04 21:30N 43°31' E 007°02'0 0.0
2018-Aug-04 21:00N 43°31' E 007°02'0 0.0
2018-Aug-04 20:27N 43°31' E 007°02'0 0.0
2018-Aug-04 20:00N 43°31' E 007°02'0 0.0
2018-Aug-04 19:21N 43°31' E 007°02'0 0.0
2018-Aug-04 18:57N 43°31' E 007°02'0 0.0
2018-Aug-04 18:24N 43°31' E 007°02'0 0.0
2018-Aug-04 17:54N 43°31' E 007°02'1 2.3
2018-Aug-04 17:20N 43°30' E 007°01'2 7.0
2018-Aug-04 17:00N 43°29' E 006°59'1 0.0
2018-Aug-03 03:34N 43°28' E 006°58'0 7.2
2018-Aug-03 03:31N 43°28' E 006°59'4 1.2
2018-Aug-03 00:11N 43°31' E 007°02'0 0.1
2018-Aug-02 23:52N 43°31' E 007°02'0 0.0
2018-Aug-02 22:58N 43°31' E 007°02'0 0.0
2018-Aug-02 22:28N 43°31' E 007°02'0 0.0
2018-Aug-02 21:52N 43°31' E 007°02'0 0.0
2018-Aug-02 20:43N 43°31' E 007°02'0 0.0
2018-Aug-02 20:28N 43°31' E 007°02'0 0.0
2018-Aug-02 19:58N 43°31' E 007°02'0 0.0
2018-Aug-02 19:28N 43°31' E 007°02'0 0.0
2018-Aug-02 18:58N 43°31' E 007°02'0 0.0
2018-Aug-02 18:29N 43°31' E 007°02'0 0.0
2018-Aug-02 17:47N 43°31' E 007°02'1 2.1
2018-Aug-02 17:30N 43°31' E 007°02'1 2.2
2018-Aug-02 16:55N 43°32' E 007°01'0 0.0
2018-Aug-02 16:25N 43°32' E 007°01'0 0.0
2018-Aug-02 15:49N 43°32' E 007°01'0 0.0
2018-Aug-02 15:28N 43°32' E 007°01'3 6.0
2018-Aug-02 15:00N 43°30' E 007°02'2 3.8
2018-Aug-02 14:28N 43°32' E 007°03'  
2018-Jul-29 03:39N 43°29' E 007°06'2 6.4
2018-Jul-29 03:18N 43°27' E 007°04'2 6.4
2018-Jul-29 02:59N 43°26' E 007°02'3 6.2
2018-Jul-29 02:30N 43°23' E 006°59'245 6.4
2018-Jul-27 12:03N 41°22' E 002°12'1 6.5
2018-Jul-27 11:56N 41°22' E 002°12'  

Dump ship's entire track history